Time;durP1;ratioP1;P1;durP2;ratioP2;P2;SDS_P1;SDS_P2;PMS_P1;PMS_P2;Temp;Humidity;BMP_temperature;BMP_pressure;BME280_temperature;BME280_humidity;BME280_pressure;Samples;Min_cycle;Max_cycle;Signal;HPM_P1;HPM_P2
2023/04/27 00:00:38;;;;;;;6.07;2.10;;;9.30;84.00;;;;;;5096541;28;20127;-79
2023/04/27 00:03:04;;;;;;;4.95;2.38;;;9.30;84.10;;;;;;5113334;28;20153;-79
2023/04/27 00:05:37;;;;;;;7.63;2.00;;;9.20;84.20;;;;;;5114422;28;20062;-79
2023/04/27 00:08:04;;;;;;;4.60;1.80;;;9.10;84.60;;;;;;5114160;28;20055;-79
2023/04/27 00:10:30;;;;;;;7.05;2.10;;;9.00;85.00;;;;;;5114470;28;20034;-79
2023/04/27 00:12:55;;;;;;;5.97;1.83;;;9.00;85.30;;;;;;5113964;28;20032;-79
2023/04/27 00:15:21;;;;;;;5.22;1.98;;;9.00;85.40;;;;;;5114448;28;20063;-79
2023/04/27 00:17:47;;;;;;;6.40;2.10;;;8.90;85.30;;;;;;5113090;28;20039;-79
2023/04/27 00:20:13;;;;;;;5.03;1.67;;;9.00;85.40;;;;;;5112849;28;20119;-79
2023/04/27 00:22:38;;;;;;;6.55;1.90;;;9.00;85.30;;;;;;5095558;28;20548;-79
2023/04/27 00:25:05;;;;;;;3.65;1.70;;;8.90;85.30;;;;;;5113014;28;20395;-79
2023/04/27 00:27:31;;;;;;;4.72;2.30;;;8.90;85.40;;;;;;5113920;28;20364;-79
2023/04/27 00:29:56;;;;;;;3.97;1.77;;;8.90;85.50;;;;;;5113911;28;20030;-79
2023/04/27 00:32:22;;;;;;;9.40;2.05;;;8.80;85.60;;;;;;5095920;28;20421;-79
2023/04/27 00:34:47;;;;;;;4.63;1.90;;;8.80;85.80;;;;;;5078539;28;20059;-79
2023/04/27 00:37:13;;;;;;;4.32;2.00;;;8.60;86.00;;;;;;5113888;28;20024;-79
2023/04/27 00:39:39;;;;;;;6.95;1.85;;;8.60;86.50;;;;;;5095941;28;20032;-79
2023/04/27 00:42:10;;;;;;;5.68;2.00;;;8.60;86.80;;;;;;5113980;28;20039;-79
2023/04/27 00:44:35;;;;;;;5.78;1.83;;;8.50;86.90;;;;;;5112617;28;20028;-79
2023/04/27 00:47:01;;;;;;;5.93;1.90;;;8.50;87.30;;;;;;5112867;28;20024;-79
2023/04/27 00:49:27;;;;;;;4.40;2.10;;;8.30;87.60;;;;;;5113624;28;20023;-79
2023/04/27 00:51:55;;;;;;;5.30;2.40;;;8.20;88.00;;;;;;5112207;28;20028;-79
2023/04/27 00:54:21;;;;;;;3.72;2.00;;;8.10;88.40;;;;;;5112561;28;20519;-79
2023/04/27 00:56:48;;;;;;;6.30;1.88;;;8.10;88.80;;;;;;5113656;28;20492;-79
2023/04/27 00:59:14;;;;;;;6.20;2.08;;;8.00;89.00;;;;;;5112627;28;20054;-79
2023/04/27 01:01:40;;;;;;;4.68;2.25;;;8.00;89.30;;;;;;5113308;28;20031;-80
2023/04/27 01:04:06;;;;;;;4.75;1.90;;;7.90;90.10;;;;;;5112547;28;20028;-80
2023/04/27 01:06:31;;;;;;;4.65;2.03;;;7.90;89.80;;;;;;5112605;28;20028;-80
2023/04/27 01:08:57;;;;;;;6.03;1.75;;;8.00;89.90;;;;;;5112685;28;20028;-80
2023/04/27 01:11:23;;;;;;;7.70;2.35;;;8.00;89.70;;;;;;5112431;28;20030;-79
2023/04/27 01:13:49;;;;;;;5.72;2.30;;;8.10;89.70;;;;;;5095574;28;20394;-79
2023/04/27 01:16:17;;;;;;;6.80;1.98;;;8.10;89.70;;;;;;5113530;28;20396;-79
2023/04/27 01:18:43;;;;;;;5.47;1.85;;;8.00;89.90;;;;;;5112428;28;20027;-79
2023/04/27 01:21:09;;;;;;;5.13;1.88;;;7.90;90.00;;;;;;5095466;28;20411;-80
2023/04/27 01:23:35;;;;;;;4.38;1.65;;;7.90;90.00;;;;;;5095229;28;20391;-80
2023/04/27 01:26:01;;;;;;;8.35;1.90;;;7.80;90.00;;;;;;5112193;28;20024;-80
2023/04/27 01:28:26;;;;;;;4.15;2.08;;;7.70;90.10;;;;;;5112381;28;20025;-80
2023/04/27 01:30:52;;;;;;;7.38;1.80;;;7.60;90.20;;;;;;5112247;28;20582;-80
2023/04/27 01:33:18;;;;;;;8.75;2.22;;;7.60;90.30;;;;;;5113568;28;20093;-79
2023/04/27 01:35:43;;;;;;;5.53;1.90;;;7.50;90.50;;;;;;5112083;28;20038;-79
2023/04/27 01:38:09;;;;;;;3.70;1.45;;;7.40;90.70;;;;;;5113566;28;20032;-79
2023/04/27 01:40:35;;;;;;;5.85;1.70;;;7.50;90.70;;;;;;5112310;28;20077;-79
2023/04/27 01:43:00;;;;;;;3.75;1.67;;;7.60;90.80;;;;;;5095306;28;20031;-79
2023/04/27 01:45:26;;;;;;;7.95;2.00;;;7.70;90.50;;;;;;5112035;28;20115;-80
2023/04/27 01:47:52;;;;;;;7.68;1.67;;;7.80;90.50;;;;;;5095287;28;20074;-79
2023/04/27 01:50:18;;;;;;;4.55;1.70;;;7.90;90.40;;;;;;5112043;28;20028;-79
2023/04/27 01:52:44;;;;;;;3.42;1.42;;;8.10;90.30;;;;;;5112833;28;20167;-79
2023/04/27 01:55:10;;;;;;;2.10;1.23;;;8.10;90.10;;;;;;5111904;28;20031;-79
2023/04/27 01:57:35;;;;;;;4.28;1.42;;;8.20;89.90;;;;;;5096808;28;20032;-79
2023/04/27 02:00:02;;;;;;;3.38;1.30;;;8.30;89.60;;;;;;5115658;28;20077;-79
2023/04/27 02:02:28;;;;;;;3.70;1.27;;;8.40;89.30;;;;;;5115452;28;20020;-79
2023/04/27 02:04:53;;;;;;;5.55;1.35;;;8.50;89.00;;;;;;5115799;28;20463;-80
2023/04/27 02:07:19;;;;;;;5.82;1.48;;;8.60;88.70;;;;;;5115894;28;20039;-79
2023/04/27 02:09:45;;;;;;;3.42;1.35;;;8.60;88.30;;;;;;5081735;28;20031;-79
2023/04/27 02:12:10;;;;;;;5.25;1.48;;;8.60;88.20;;;;;;5081647;28;20028;-79
2023/04/27 02:14:36;;;;;;;2.00;1.10;;;8.70;88.10;;;;;;5098520;28;20038;-79
2023/04/27 02:17:02;;;;;;;4.38;1.42;;;8.70;87.80;;;;;;5115028;28;20031;-80
2023/04/27 02:19:28;;;;;;;3.15;1.50;;;8.70;87.50;;;;;;5115268;28;20032;-78
2023/04/27 02:21:53;;;;;;;4.43;1.55;;;8.70;87.50;;;;;;5115427;28;20027;-79
2023/04/27 02:24:19;;;;;;;4.22;1.60;;;8.70;87.60;;;;;;5097951;28;20043;-78
2023/04/27 02:26:45;;;;;;;5.15;1.90;;;8.70;87.60;;;;;;5115184;28;20468;-80
2023/04/27 02:29:10;;;;;;;4.95;1.88;;;8.60;87.70;;;;;;5098341;28;20463;-79
2023/04/27 02:31:36;;;;;;;3.63;1.65;;;8.60;87.70;;;;;;5114956;28;20027;-79
2023/04/27 02:34:01;;;;;;;5.13;1.42;;;8.70;87.80;;;;;;5115794;28;20058;-80
2023/04/27 02:36:27;;;;;;;3.22;1.40;;;8.60;87.70;;;;;;5098298;28;20383;-80
2023/04/27 02:38:53;;;;;;;2.40;1.15;;;8.60;87.70;;;;;;5098092;28;20466;-79
2023/04/27 02:41:18;;;;;;;3.50;1.38;;;8.70;87.60;;;;;;5115084;28;20074;-80
2023/04/27 02:43:45;;;;;;;5.20;1.48;;;8.70;87.50;;;;;;5114940;28;20028;-80
2023/04/27 02:46:11;;;;;;;5.53;1.50;;;8.70;87.40;;;;;;5114409;28;20020;-79
2023/04/27 02:48:36;;;;;;;4.63;1.70;;;8.70;87.30;;;;;;5114876;28;20376;-79
2023/04/27 02:51:03;;;;;;;3.63;1.63;;;8.80;87.30;;;;;;5114470;28;20062;-79
2023/04/27 02:53:29;;;;;;;3.53;1.40;;;8.70;87.10;;;;;;5114239;28;20093;-80
2023/04/27 02:55:54;;;;;;;3.85;1.42;;;8.70;87.00;;;;;;5114558;28;20027;-80
2023/04/27 02:58:21;;;;;;;4.05;1.50;;;8.80;87.00;;;;;;5115620;28;20032;-79
2023/04/27 03:00:52;;;;;;;5.72;1.88;;;8.80;86.90;;;;;;5114584;28;20032;-79
2023/04/27 03:03:17;;;;;;;5.32;1.65;;;8.80;86.80;;;;;;5115603;28;20127;-79
2023/04/27 03:05:43;;;;;;;3.83;1.60;;;8.80;86.70;;;;;;5114313;28;20089;-79
2023/04/27 03:08:09;;;;;;;4.78;1.50;;;8.70;86.60;;;;;;5114247;28;20032;-79
2023/04/27 03:10:34;;;;;;;4.75;1.48;;;8.70;86.70;;;;;;5097403;28;20028;-78
2023/04/27 03:13:00;;;;;;;4.93;1.50;;;8.70;86.70;;;;;;5115221;28;20027;-79
2023/04/27 03:15:25;;;;;;;6.22;1.45;;;8.60;86.80;;;;;;5114087;28;20349;-78
2023/04/27 03:17:51;;;;;;;4.03;1.58;;;8.60;86.80;;;;;;5115787;28;20027;-79
2023/04/27 03:20:17;;;;;;;4.00;1.13;;;8.60;86.80;;;;;;5115096;28;20039;-78
2023/04/27 03:22:44;;;;;;;3.65;1.40;;;8.60;86.80;;;;;;5114595;28;20030;-78
2023/04/27 03:25:10;;;;;;;3.80;1.10;;;8.70;86.90;;;;;;5097044;28;20027;-78
2023/04/27 03:27:36;;;;;;;4.95;1.77;;;8.60;86.80;;;;;;5096943;28;20032;-78
2023/04/27 03:30:03;;;;;;;5.85;1.80;;;8.70;86.90;;;;;;5096947;28;20451;-78
2023/04/27 03:32:29;;;;;;;5.28;1.50;;;8.60;86.80;;;;;;5114113;28;20028;-79
2023/04/27 03:34:55;;;;;;;4.32;1.30;;;8.60;86.80;;;;;;5114588;28;20109;-79
2023/04/27 03:37:20;;;;;;;5.13;1.40;;;8.60;86.70;;;;;;5114049;28;20070;-79
2023/04/27 03:39:46;;;;;;;3.67;1.60;;;8.70;86.80;;;;;;5113924;28;20028;-79
2023/04/27 03:42:12;;;;;;;4.07;1.58;;;8.70;86.90;;;;;;5114992;28;20019;-79
2023/04/27 03:44:37;;;;;;;4.45;1.40;;;8.70;86.80;;;;;;5113824;28;20035;-79
2023/04/27 03:47:07;;;;;;;5.22;1.50;;;8.70;86.70;;;;;;5114773;28;20028;-79
2023/04/27 03:49:34;;;;;;;4.82;1.58;;;8.70;86.70;;;;;;5114932;28;20031;-80
2023/04/27 03:52:00;;;;;;;5.25;1.25;;;8.70;86.60;;;;;;5113750;28;20040;-79
2023/04/27 03:54:25;;;;;;;3.90;1.45;;;8.70;86.60;;;;;;5113212;28;20036;-79
2023/04/27 03:56:51;;;;;;;6.47;1.88;;;8.70;86.50;;;;;;5113382;28;20032;-79
2023/04/27 03:59:17;;;;;;;3.42;1.35;;;8.70;86.50;;;;;;5096833;28;20376;-79
2023/04/27 04:01:43;;;;;;;2.90;1.35;;;8.70;86.30;;;;;;5113178;28;20039;-79
2023/04/27 04:04:08;;;;;;;4.50;1.38;;;8.70;86.30;;;;;;5113501;28;20032;-79
2023/04/27 04:06:35;;;;;;;3.38;1.33;;;8.70;86.10;;;;;;5114881;28;20035;-79
2023/04/27 04:09:00;;;;;;;3.33;1.15;;;8.70;86.00;;;;;;5113207;28;20027;-79
2023/04/27 04:11:26;;;;;;;7.38;1.35;;;8.60;86.00;;;;;;5112971;28;20024;-79
2023/04/27 04:13:52;;;;;;;4.80;1.40;;;8.60;86.10;;;;;;5079300;28;20042;-79
2023/04/27 04:16:17;;;;;;;5.32;1.30;;;8.60;86.10;;;;;;5113116;28;20119;-79
2023/04/27 04:18:43;;;;;;;4.90;1.30;;;8.60;86.00;;;;;;5113119;28;20077;-79
2023/04/27 04:21:10;;;;;;;5.18;1.77;;;8.60;85.90;;;;;;5112473;28;20475;-79
2023/04/27 04:23:36;;;;;;;4.93;1.77;;;8.60;85.80;;;;;;5112837;28;20038;-79
2023/04/27 04:26:02;;;;;;;6.40;1.88;;;8.60;85.80;;;;;;5096150;28;20084;-78
2023/04/27 04:28:28;;;;;;;3.67;1.50;;;8.60;85.80;;;;;;5113979;28;20031;-78
2023/04/27 04:30:54;;;;;;;5.82;1.73;;;8.60;85.90;;;;;;5113068;28;20123;-79
2023/04/27 04:33:20;;;;;;;4.55;1.60;;;8.50;85.90;;;;;;5113961;28;20082;-79
2023/04/27 04:35:45;;;;;;;3.60;1.85;;;8.50;86.10;;;;;;5096038;28;20122;-79
2023/04/27 04:38:12;;;;;;;5.07;1.90;;;8.50;86.10;;;;;;5112556;28;20050;-79
2023/04/27 04:40:38;;;;;;;4.32;2.35;;;8.40;86.10;;;;;;5114137;28;20024;-79
2023/04/27 04:43:04;;;;;;;6.70;2.05;;;8.40;86.40;;;;;;5114046;28;20116;-79
2023/04/27 04:45:30;;;;;;;7.05;2.45;;;8.30;86.40;;;;;;5113755;28;20027;-79
2023/04/27 04:47:55;;;;;;;4.80;2.22;;;8.30;86.80;;;;;;5113712;28;20032;-78
2023/04/27 04:50:22;;;;;;;6.55;2.88;;;8.20;87.00;;;;;;5095530;28;20023;-79
2023/04/27 04:52:48;;;;;;;11.02;2.90;;;8.20;87.40;;;;;;5113679;28;20024;-79
2023/04/27 04:55:14;;;;;;;5.47;2.50;;;8.20;87.80;;;;;;5113917;28;20042;-79
2023/04/27 04:57:39;;;;;;;5.45;2.78;;;8.20;88.00;;;;;;5113878;28;20035;-80
2023/04/27 05:00:10;;;;;;;4.55;3.10;;;8.10;88.60;;;;;;5112531;28;20061;-79
2023/04/27 05:02:36;;;;;;;3.97;2.67;;;8.10;88.90;;;;;;5113945;28;20020;-80
2023/04/27 05:05:02;;;;;;;4.70;3.10;;;8.10;88.90;;;;;;5095712;28;20034;-79
2023/04/27 05:07:28;;;;;;;10.05;3.30;;;8.00;89.30;;;;;;5112598;28;20032;-80
2023/04/27 05:09:54;;;;;;;6.05;3.20;;;8.00;89.60;;;;;;5113275;28;20383;-81
2023/04/27 05:12:19;;;;;;;6.85;3.13;;;7.90;90.00;;;;;;5095778;28;20046;-80
2023/04/27 05:14:45;;;;;;;6.68;3.85;;;7.90;90.10;;;;;;5112348;28;20032;-79
2023/04/27 05:17:11;;;;;;;9.23;3.35;;;7.90;90.20;;;;;;5095626;28;20122;-79
2023/04/27 05:19:36;;;;;;;8.55;3.50;;;7.80;90.30;;;;;;5095556;28;20024;-79
2023/04/27 05:22:02;;;;;;;9.15;3.90;;;7.80;90.60;;;;;;5112514;28;20125;-79
2023/04/27 05:24:28;;;;;;;7.82;4.50;;;7.80;90.90;;;;;;5112054;28;20101;-79
2023/04/27 05:26:53;;;;;;;8.48;4.35;;;7.80;91.10;;;;;;5112434;28;20165;-79
2023/04/27 05:29:20;;;;;;;12.20;4.93;;;7.80;91.20;;;;;;5095202;28;20035;-79
2023/04/27 05:31:46;;;;;;;9.80;4.60;;;7.70;91.20;;;;;;5112660;28;20536;-78
2023/04/27 05:34:12;;;;;;;12.10;5.40;;;7.80;91.60;;;;;;5098959;28;20055;-78
2023/04/27 05:36:38;;;;;;;10.95;4.53;;;7.80;91.60;;;;;;5099393;28;20040;-75
2023/04/27 05:39:03;;;;;;;12.15;4.70;;;7.70;91.80;;;;;;5115864;28;20024;-78
2023/04/27 05:41:29;;;;;;;9.57;5.00;;;7.70;92.10;;;;;;5117202;28;20034;-80
2023/04/27 05:43:55;;;;;;;7.50;4.90;;;7.80;92.00;;;;;;5116015;28;20027;-79
2023/04/27 05:46:21;;;;;;;12.13;4.82;;;7.80;92.20;;;;;;5116260;28;20028;-79
2023/04/27 05:48:46;;;;;;;8.57;4.72;;;7.80;92.10;;;;;;5117588;28;20407;-80
2023/04/27 05:51:12;;;;;;;7.90;4.80;;;7.80;92.10;;;;;;5117142;27;20031;-80
2023/04/27 05:53:38;;;;;;;8.63;4.80;;;7.90;92.00;;;;;;5116986;28;20055;-80
2023/04/27 05:56:05;;;;;;;7.63;4.70;;;7.90;92.00;;;;;;5116840;28;20070;-80
2023/04/27 05:58:32;;;;;;;6.60;4.30;;;8.00;92.00;;;;;;5115907;28;20023;-80
2023/04/27 06:00:59;;;;;;;8.98;4.60;;;8.10;92.00;;;;;;5117336;28;20169;-80
2023/04/27 06:03:25;;;;;;;9.27;4.28;;;8.10;92.00;;;;;;5117109;28;20028;-80
2023/04/27 06:05:55;;;;;;;9.07;4.75;;;8.30;91.90;;;;;;5115305;28;20118;-80
2023/04/27 06:08:20;;;;;;;7.95;4.60;;;8.40;91.80;;;;;;5115699;28;20081;-80
2023/04/27 06:10:46;;;;;;;10.70;5.20;;;8.40;91.70;;;;;;5115637;28;20027;-80
2023/04/27 06:13:12;;;;;;;10.82;4.70;;;8.40;91.80;;;;;;5098510;28;20106;-80
2023/04/27 06:15:37;;;;;;;8.60;5.05;;;8.50;91.60;;;;;;5116579;28;20364;-81
2023/04/27 06:18:03;;;;;;;6.30;4.35;;;8.60;91.80;;;;;;5115566;28;20111;-80
2023/04/27 06:20:29;;;;;;;15.68;5.20;;;8.60;91.10;;;;;;5115724;28;20038;-80
2023/04/27 06:22:56;;;;;;;12.13;5.07;;;8.70;91.10;;;;;;5114946;28;20024;-80
2023/04/27 06:25:22;;;;;;;6.53;4.30;;;8.70;91.10;;;;;;5098545;28;20039;-80
2023/04/27 06:27:48;;;;;;;5.68;3.95;;;8.70;91.30;;;;;;5115121;28;20081;-81
2023/04/27 06:30:13;;;;;;;7.53;4.30;;;8.80;90.80;;;;;;5081557;28;20032;-79
2023/04/27 06:32:39;;;;;;;5.78;4.00;;;8.90;90.60;;;;;;5081401;28;20059;-80
2023/04/27 06:35:05;;;;;;;7.28;4.70;;;8.90;90.50;;;;;;5098040;28;20549;-81
2023/04/27 06:37:31;;;;;;;9.35;4.13;;;9.00;90.40;;;;;;5115237;28;20567;-83
2023/04/27 06:39:56;;;;;;;11.75;3.70;;;9.10;90.40;;;;;;5116433;28;20123;-80
2023/04/27 06:42:22;;;;;;;6.30;2.60;;;9.10;90.20;;;;;;5114973;28;20028;-80
2023/04/27 06:44:48;;;;;;;5.28;2.75;;;9.00;89.00;;;;;;5114623;28;20429;-80
2023/04/27 06:47:13;;;;;;;9.40;3.42;;;9.10;90.00;;;;;;5097928;28;20034;-79
2023/04/27 06:49:39;;;;;;;8.30;3.03;;;9.10;88.80;;;;;;5114861;28;20027;-79
2023/04/27 06:52:05;;;;;;;10.88;3.08;;;9.10;88.40;;;;;;5101583;28;20388;-79
2023/04/27 06:54:31;;;;;;;6.93;4.32;;;9.20;90.70;;;;;;5111393;27;20392;-82
2023/04/27 06:56:56;;;;;;;11.25;4.60;;;9.30;90.10;;;;;;5121149;27;20043;-80
2023/04/27 06:59:22;;;;;;;7.13;3.75;;;9.30;90.60;;;;;;5121430;27;20030;-80
2023/04/27 07:01:48;;;;;;;9.80;3.35;;;9.50;90.50;;;;;;5123526;27;20019;-79
2023/04/27 07:04:13;;;;;;;6.20;2.85;;;9.70;90.10;;;;;;5112887;28;20032;-80
2023/04/27 07:06:39;;;;;;;7.35;3.10;;;9.70;88.70;;;;;;5114533;28;20035;-80
2023/04/27 07:09:05;;;;;;;8.23;3.15;;;9.80;88.30;;;;;;5113760;28;20023;-83
2023/04/27 07:11:30;;;;;;;7.63;2.72;;;9.90;86.70;;;;;;5114842;28;20088;-75
2023/04/27 07:13:56;;;;;;;10.60;2.47;;;9.90;86.60;;;;;;5114523;28;20483;-77
2023/04/27 07:16:22;;;;;;;4.55;2.10;;;9.90;86.60;;;;;;5112900;28;20528;-78
2023/04/27 07:18:47;;;;;;;6.10;2.13;;;10.00;88.10;;;;;;5113906;28;20356;-78
2023/04/27 07:21:13;;;;;;;5.45;2.00;;;10.20;88.50;;;;;;5113764;28;20148;-81
2023/04/27 07:23:42;;;;;;;5.28;1.92;;;10.30;87.30;;;;;;5113890;28;20106;-85
2023/04/27 07:26:08;;;;;;;8.13;2.45;;;10.40;84.80;;;;;;5113980;28;20115;-81
2023/04/27 07:28:34;;;;;;;8.18;2.38;;;10.30;85.20;;;;;;5095589;28;20495;-80
2023/04/27 07:31:03;;;;;;;8.02;2.30;;;10.40;85.80;;;;;;5114151;28;20035;-81
2023/04/27 07:33:29;;;;;;;5.85;2.03;;;10.40;85.90;;;;;;5112403;28;20031;-83
2023/04/27 07:35:55;;;;;;;7.10;2.30;;;10.50;84.80;;;;;;5113840;28;20467;-82
2023/04/27 07:38:22;;;;;;;7.07;2.42;;;10.50;84.00;;;;;;5112564;28;20031;-79
2023/04/27 07:40:48;;;;;;;5.53;1.92;;;10.60;83.40;;;;;;5112343;28;20035;-78
2023/04/27 07:43:14;;;;;;;3.65;1.70;;;10.80;83.80;;;;;;5113286;28;20527;-79
2023/04/27 07:45:41;;;;;;;8.65;1.90;;;10.90;82.50;;;;;;5095543;28;20387;-79
2023/04/27 07:48:07;;;;;;;6.03;1.35;;;10.90;80.20;;;;;;5112338;28;20035;-79
2023/04/27 07:50:32;;;;;;;6.18;1.80;;;10.90;81.00;;;;;;5113605;28;20020;-79
2023/04/27 07:52:59;;;;;;;5.25;1.73;;;11.00;80.60;;;;;;5109124;28;20107;-75
2023/04/27 07:55:25;;;;;;;7.45;1.40;;;11.00;79.60;;;;;;5113045;28;20476;-79
2023/04/27 07:57:55;;;;;;;6.03;1.15;;;11.00;79.70;;;;;;5114528;28;20077;-77
2023/04/27 08:00:22;;;;;;;4.22;1.00;;;11.10;78.40;;;;;;5113302;28;20027;-74
2023/04/27 08:02:49;;;;;;;6.80;1.52;;;11.20;77.80;;;;;;5114741;28;20397;-79
2023/04/27 08:05:15;;;;;;;5.18;1.15;;;11.30;78.20;;;;;;5114162;28;20036;-81
2023/04/27 08:07:41;;;;;;;5.68;0.93;;;11.50;78.50;;;;;;5114003;28;20034;-82
2023/04/27 08:10:07;;;;;;;3.60;1.23;;;11.50;75.90;;;;;;5114449;28;20059;-79
2023/04/27 08:12:33;;;;;;;7.57;1.42;;;11.50;76.20;;;;;;5096463;28;20035;-82
2023/04/27 08:14:59;;;;;;;6.50;1.23;;;11.60;76.60;;;;;;5114075;28;20139;-79
2023/04/27 08:17:25;;;;;;;7.25;1.70;;;11.80;77.00;;;;;;5113011;28;20122;-80
2023/04/27 08:19:51;;;;;;;4.05;1.05;;;11.90;74.30;;;;;;5113163;28;20482;-77
2023/04/27 08:22:17;;;;;;;4.60;0.98;;;11.90;73.90;;;;;;5113538;28;20027;-82
2023/04/27 08:24:42;;;;;;;2.85;0.90;;;12.00;72.10;;;;;;5112639;28;20114;-82
2023/04/27 08:27:08;;;;;;;3.22;0.80;;;12.10;72.10;;;;;;5114020;28;20031;-83
2023/04/27 08:29:34;;;;;;;3.83;0.90;;;12.10;68.70;;;;;;5113975;27;20123;-81
2023/04/27 08:32:02;;;;;;;3.45;0.95;;;12.10;68.00;;;;;;5115192;28;20077;-83
2023/04/27 08:34:28;;;;;;;3.58;1.00;;;12.10;67.80;;;;;;5113895;28;20059;-81
2023/04/27 08:36:55;;;;;;;4.78;1.33;;;12.10;69.20;;;;;;5114667;28;20019;-81
2023/04/27 08:39:21;;;;;;;4.35;0.98;;;12.20;68.70;;;;;;5113687;28;20032;-82
2023/04/27 08:41:47;;;;;;;3.78;0.80;;;12.20;68.90;;;;;;5096237;28;20031;-81
2023/04/27 08:44:13;;;;;;;4.53;1.13;;;12.20;68.60;;;;;;5113000;28;20383;-80
2023/04/27 08:46:38;;;;;;;5.55;0.95;;;12.30;69.30;;;;;;5112587;28;20476;-80
2023/04/27 08:49:06;;;;;;;2.15;0.70;;;12.20;67.50;;;;;;5112991;28;20027;-78
2023/04/27 08:51:32;;;;;;;5.53;1.52;;;12.20;68.50;;;;;;5113751;28;20038;-80
2023/04/27 08:53:59;;;;;;;6.88;1.70;;;12.30;68.40;;;;;;5112899;28;20031;-78
2023/04/27 08:56:28;;;;;;;13.63;2.65;;;12.40;69.50;;;;;;5112839;28;20110;-82
2023/04/27 08:58:55;;;;;;;6.03;1.70;;;12.50;70.00;;;;;;5113773;28;20046;-81
2023/04/27 09:01:22;;;;;;;6.20;1.58;;;12.50;71.80;;;;;;5112928;28;20024;-79
2023/04/27 09:03:54;;;;;;;7.28;2.08;;;12.60;71.10;;;;;;5112608;28;20388;-80
2023/04/27 09:06:32;;;;;;;6.33;1.87;;;12.70;70.80;;;;;;5115385;28;20039;-78
2023/04/27 09:08:58;;;;;;;3.65;1.60;;;12.80;70.80;;;;;;5118086;28;20258;-78
2023/04/27 09:11:33;;;;;;;4.40;1.63;;;12.70;70.20;;;;;;5116313;28;20464;-78
2023/04/27 09:14:13;;;;;;;7.05;1.90;;;12.90;70.30;;;;;;5118091;28;20039;-78
2023/04/27 09:16:39;;;;;;;5.60;1.63;;;13.00;68.50;;;;;;5116580;28;20502;-79
2023/04/27 09:19:05;;;;;;;8.30;2.55;;;13.10;68.60;;;;;;5099714;28;20028;-79
2023/04/27 09:21:31;;;;;;;3.83;1.65;;;13.20;67.90;;;;;;5116572;28;20042;-78
2023/04/27 09:23:57;;;;;;;3.33;1.20;;;13.30;67.70;;;;;;5098939;28;20402;-78
2023/04/27 09:26:26;;;;;;;6.45;1.80;;;13.30;67.60;;;;;;5116085;28;20030;-79
2023/04/27 09:28:56;;;;;;;4.85;1.52;;;13.30;66.80;;;;;;5117793;28;20024;-78
2023/04/27 09:31:33;;;;;;;6.00;1.65;;;13.30;66.80;;;;;;5117678;28;20024;-79
2023/04/27 09:33:59;;;;;;;4.65;1.85;;;13.30;67.00;;;;;;5117187;28;20051;-78
2023/04/27 09:36:25;;;;;;;5.65;1.55;;;13.40;65.70;;;;;;5116284;28;20035;-80
2023/04/27 09:38:52;;;;;;;6.60;1.63;;;13.50;64.70;;;;;;5116886;28;20027;-78
2023/04/27 09:41:18;;;;;;;9.05;2.13;;;13.50;64.50;;;;;;5115661;28;20035;-79
2023/04/27 09:43:45;;;;;;;6.05;1.23;;;13.60;65.30;;;;;;5115518;28;20442;-79
2023/04/27 09:46:14;;;;;;;3.42;1.20;;;13.60;63.80;;;;;;5116442;28;20399;-79
2023/04/27 09:48:40;;;;;;;4.22;1.15;;;13.80;64.90;;;;;;5115529;28;20528;-78
2023/04/27 09:51:06;;;;;;;7.97;1.60;;;14.00;64.60;;;;;;5115441;28;20031;-76
2023/04/27 09:53:47;;;;;;;2.92;1.27;;;14.10;63.00;;;;;;5099034;28;20023;-80
2023/04/27 09:56:35;;;;;;;3.83;1.30;;;14.10;60.80;;;;;;5119722;28;20111;-85
2023/04/27 09:59:20;;;;;;;3.63;1.17;;;14.10;60.90;;;;;;5123791;28;20077;-82
2023/04/27 10:02:05;;;;;;;6.72;1.75;;;14.20;61.50;;;;;;5128983;28;20011;-83
2023/04/27 10:04:49;;;;;;;2.67;1.20;;;14.20;59.70;;;;;;5121439;28;20114;-84
2023/04/27 10:07:16;;;;;;;4.45;1.40;;;14.10;59.70;;;;;;5122646;28;20039;-83
2023/04/27 10:09:42;;;;;;;4.18;1.30;;;14.10;59.60;;;;;;5102654;28;20028;-86
2023/04/27 10:12:20;;;;;;;3.38;1.33;;;14.10;59.10;;;;;;5127389;28;20031;-85
2023/04/27 10:14:56;;;;;;;5.80;1.50;;;14.00;59.30;;;;;;5129710;28;20032;-82
2023/04/27 10:17:35;;;;;;;5.70;1.55;;;14.10;59.80;;;;;;5129311;28;20046;-83
2023/04/27 10:20:03;;;;;;;3.35;1.50;;;14.30;61.40;;;;;;5132494;28;20020;-82
2023/04/27 10:22:45;;;;;;;3.25;1.60;;;14.40;59.50;;;;;;5125280;28;20573;-83
2023/04/27 10:25:23;;;;;;;5.23;1.50;;;14.50;57.20;;;;;;5122782;28;20035;-83
2023/04/27 10:27:54;;;;;;;5.85;1.90;;;14.60;57.40;;;;;;5125390;28;20663;-82
2023/04/27 10:30:25;;;;;;;3.13;1.75;;;14.70;57.10;;;;;;5117030;28;20387;-80
2023/04/27 10:32:57;;;;;;;3.60;1.33;;;14.80;56.10;;;;;;5118341;28;20024;-81
2023/04/27 10:35:35;;;;;;;5.07;1.77;;;14.80;56.50;;;;;;5117361;28;20047;-85
2023/04/27 10:38:07;;;;;;;7.15;2.10;;;14.90;56.50;;;;;;5119399;28;20034;-82
2023/04/27 10:40:34;;;;;;;4.65;1.60;;;14.80;57.90;;;;;;5124528;28;20019;-82
2023/04/27 10:43:14;;;;;;;4.47;1.70;;;14.90;58.10;;;;;;5122376;28;20490;-83
2023/04/27 10:45:41;;;;;;;3.58;1.83;;;15.10;58.30;;;;;;5119070;28;20031;-77
2023/04/27 10:48:07;;;;;;;3.83;1.67;;;15.20;56.30;;;;;;5098779;28;20024;-76
2023/04/27 10:50:33;;;;;;;3.40;1.65;;;15.20;56.60;;;;;;5116047;28;20038;-82
2023/04/27 10:53:08;;;;;;;4.80;2.15;;;15.30;57.20;;;;;;5115796;28;20088;-80
2023/04/27 10:55:34;;;;;;;2.65;1.30;;;15.20;56.10;;;;;;5114689;28;20092;-80
2023/04/27 10:58:01;;;;;;;4.47;1.80;;;15.20;57.20;;;;;;5115003;28;20120;-79
2023/04/27 11:00:31;;;;;;;4.47;1.80;;;15.20;56.50;;;;;;5115968;28;20168;-77
2023/04/27 11:03:10;;;;;;;5.60;2.08;;;15.30;57.10;;;;;;5115719;28;20123;-80
2023/04/27 11:05:36;;;;;;;5.35;2.40;;;15.30;56.30;;;;;;5099427;28;20039;-77
2023/04/27 11:08:13;;;;;;;3.60;1.52;;;15.30;56.70;;;;;;5115838;28;20069;-78
2023/04/27 11:10:43;;;;;;;5.13;2.00;;;15.40;56.60;;;;;;5123677;27;20023;-83
2023/04/27 11:13:14;;;;;;;4.72;1.63;;;15.50;55.80;;;;;;5122298;28;20024;-82
2023/04/27 11:15:43;;;;;;;3.80;1.73;;;15.80;56.60;;;;;;5115557;28;20066;-74
2023/04/27 11:18:09;;;;;;;4.05;1.67;;;16.00;55.10;;;;;;5116442;28;20028;-80
2023/04/27 11:20:35;;;;;;;5.53;2.30;;;16.10;54.20;;;;;;5115841;28;20115;-77
2023/04/27 11:23:01;;;;;;;7.47;2.70;;;16.20;54.40;;;;;;5114917;28;20471;-77
2023/04/27 11:25:29;;;;;;;8.15;2.40;;;16.10;53.30;;;;;;5115563;28;20036;-78
2023/04/27 11:27:55;;;;;;;5.90;1.95;;;16.00;54.80;;;;;;5115335;28;20024;-75
2023/04/27 11:30:22;;;;;;;4.60;2.10;;;16.10;54.30;;;;;;5115332;28;20111;-79
2023/04/27 11:32:48;;;;;;;4.95;2.13;;;16.20;53.90;;;;;;5113893;28;20085;-78
2023/04/27 11:35:14;;;;;;;7.22;2.40;;;16.30;54.80;;;;;;5092945;28;20052;-78
2023/04/27 11:37:41;;;;;;;6.18;2.50;;;16.50;54.30;;;;;;5095043;28;20020;-79
2023/04/27 11:40:08;;;;;;;6.65;2.65;;;16.60;53.10;;;;;;5094837;28;20069;-78
2023/04/27 11:42:34;;;;;;;2.53;2.00;;;16.50;53.30;;;;;;5093427;28;20045;-80
2023/04/27 11:45:11;;;;;;;3.83;1.65;;;16.50;53.90;;;;;;5092880;28;20182;-79
2023/04/27 11:47:36;;;;;;;4.38;2.35;;;16.70;54.10;;;;;;5094515;28;20081;-78
2023/04/27 11:50:09;;;;;;;5.22;2.33;;;16.90;52.20;;;;;;5094544;28;20107;-79
2023/04/27 11:52:35;;;;;;;;;;;17.00;52.60;;;;;;5094635;28;20024;-79
2023/04/27 11:55:07;;;;;;;7.05;2.65;;;17.20;52.80;;;;;;5094342;28;20347;-79
2023/04/27 11:57:34;;;;;;;4.65;2.20;;;17.20;50.40;;;;;;5094185;28;20055;-78
2023/04/27 12:00:09;;;;;;;5.80;2.40;;;17.00;50.30;;;;;;5093793;28;20024;-79
2023/04/27 12:02:35;;;;;;;5.05;2.30;;;16.90;49.70;;;;;;5094092;28;20026;-78
2023/04/27 12:05:01;;;;;;;5.13;2.58;;;16.80;50.30;;;;;;5094259;28;20027;-79
2023/04/27 12:07:27;;;;;;;4.70;2.25;;;16.80;50.50;;;;;;5093008;28;20031;-78
2023/04/27 12:09:53;;;;;;;6.50;2.05;;;16.60;50.20;;;;;;5076113;28;20388;-79
2023/04/27 12:12:21;;;;;;;3.97;2.38;;;16.70;50.30;;;;;;5075766;28;20063;-78
2023/04/27 12:14:50;;;;;;;3.97;2.05;;;16.70;49.50;;;;;;5093393;28;20562;-78
2023/04/27 12:17:16;;;;;;;3.90;2.10;;;16.60;49.30;;;;;;5092959;28;20115;-78
2023/04/27 12:19:42;;;;;;;3.63;1.75;;;16.70;50.40;;;;;;5094434;28;20060;-78
2023/04/27 12:22:08;;;;;;;2.15;1.90;;;17.00;50.90;;;;;;5076162;28;20035;-78
2023/04/27 12:24:35;;;;;;;6.93;2.50;;;17.20;50.50;;;;;;5092989;28;20024;-78
2023/04/27 12:27:02;;;;;;;4.68;2.20;;;17.40;50.10;;;;;;5092566;28;20028;-79
2023/04/27 12:29:28;;;;;;;3.35;1.80;;;17.50;49.20;;;;;;5093901;28;20016;-79
2023/04/27 12:31:53;;;;;;;4.57;1.75;;;17.60;49.30;;;;;;5092248;28;20036;-78
2023/04/27 12:34:19;;;;;;;3.50;1.80;;;17.50;48.50;;;;;;5075366;28;20059;-78
2023/04/27 12:36:45;;;;;;;4.90;1.88;;;17.60;48.10;;;;;;5093538;28;20024;-78
2023/04/27 12:39:25;;;;;;;4.60;1.75;;;17.50;47.90;;;;;;5075777;28;20027;-79
2023/04/27 12:41:52;;;;;;;4.47;1.90;;;17.50;48.90;;;;;;5075982;28;20024;-78
2023/04/27 12:44:19;;;;;;;4.20;2.00;;;17.40;48.50;;;;;;5093142;28;20028;-78
2023/04/27 12:46:46;;;;;;;3.08;2.13;;;17.20;49.90;;;;;;5092326;28;20039;-78
2023/04/27 12:49:13;;;;;;;4.20;1.83;;;17.20;50.30;;;;;;5093608;28;20376;-78
2023/04/27 12:51:38;;;;;;;6.97;1.92;;;17.30;49.80;;;;;;5093573;28;20097;-78